createdAt,value
2023-03-02T00:00:02.468Z,99017.89
2023-03-02T00:03:29.146Z,99017.04
2023-03-02T00:06:34.623Z,99018.48
2023-03-02T00:09:38.725Z,99021.22
2023-03-02T00:12:42.570Z,99020.67
2023-03-02T00:15:45.843Z,99020.75
2023-03-02T00:18:49.196Z,99018.54
2023-03-02T00:21:52.414Z,99014.09
2023-03-02T00:24:55.628Z,99009.84
2023-03-02T00:27:58.795Z,99008.79
2023-03-02T00:31:05.344Z,99009.52
2023-03-02T00:34:08.685Z,99005.63
2023-03-02T00:37:11.885Z,99005.42
2023-03-02T00:40:15.486Z,99006.27
2023-03-02T00:43:18.785Z,99005.27
2023-03-02T00:46:24.340Z,99002.80
2023-03-02T00:49:28.271Z,99002.97
2023-03-02T00:52:32.924Z,98999.60
2023-03-02T00:55:37.729Z,98997.65
2023-03-02T00:58:41.185Z,98993.19
2023-03-02T01:01:44.633Z,98989.31
2023-03-02T01:04:48.382Z,98987.85
2023-03-02T01:07:51.649Z,98986.81
2023-03-02T01:10:54.930Z,98982.95
2023-03-02T01:13:58.172Z,98981.41
2023-03-02T01:17:01.394Z,98976.17
2023-03-02T01:20:06.322Z,98976.58
2023-03-02T01:23:09.581Z,98977.30
2023-03-02T01:26:12.918Z,98972.77
2023-03-02T01:29:16.213Z,98969.95
2023-03-02T01:32:19.498Z,98964.22
2023-03-02T01:35:23.399Z,98963.48
2023-03-02T01:38:27.253Z,98961.08
2023-03-02T01:41:31.484Z,98961.48
2023-03-02T01:44:47.651Z,98959.87
2023-03-02T01:47:51.000Z,98954.06
2023-03-02T01:50:55.507Z,98950.96
2023-03-02T01:54:04.863Z,98948.05
2023-03-02T01:57:09.284Z,98949.29
2023-03-02T02:00:29.074Z,98947.33
2023-03-02T02:03:32.476Z,98945.46
2023-03-02T02:06:43.248Z,98938.25
2023-03-02T02:09:49.829Z,98931.08
2023-03-02T02:12:53.503Z,98925.63
2023-03-02T02:15:56.760Z,98926.29
2023-03-02T02:19:02.177Z,98924.63
2023-03-02T02:22:05.415Z,98927.89
2023-03-02T02:25:22.570Z,98920.98
2023-03-02T02:28:31.859Z,98918.88
2023-03-02T02:31:40.479Z,98917.26
2023-03-02T02:34:49.165Z,98919.36
2023-03-02T02:37:56.412Z,98918.70
2023-03-02T02:41:04.374Z,98915.20
2023-03-02T02:44:14.876Z,98915.27
2023-03-02T02:47:21.882Z,98909.27
2023-03-02T02:50:35.459Z,98908.23
2023-03-02T02:53:45.187Z,98897.00
2023-03-02T02:56:50.221Z,98897.05
2023-03-02T03:00:01.029Z,98895.86
2023-03-02T03:03:29.455Z,98892.57
2023-03-02T03:06:42.444Z,98892.00
2023-03-02T03:09:55.672Z,98886.57
2023-03-02T03:12:59.193Z,98883.40
2023-03-02T03:16:03.777Z,98880.16
2023-03-02T03:19:18.401Z,98883.27
2023-03-02T03:22:21.891Z,98886.40
2023-03-02T03:25:27.441Z,98886.84
2023-03-02T03:28:32.226Z,98885.83
2023-03-02T03:31:35.867Z,98881.45
2023-03-02T03:34:41.149Z,98884.55
2023-03-02T03:37:56.874Z,98879.72
2023-03-02T03:41:00.216Z,98877.16
2023-03-02T03:44:04.707Z,98880.52
2023-03-02T03:47:08.720Z,98875.95
2023-03-02T03:50:12.770Z,98875.27
2023-03-02T03:53:16.579Z,98867.76
2023-03-02T03:56:19.835Z,98866.27
2023-03-02T03:59:24.805Z,98869.59
2023-03-02T04:02:31.845Z,98872.30
2023-03-02T04:05:35.378Z,98872.15
2023-03-02T04:08:40.062Z,98869.27
2023-03-02T04:11:45.175Z,98867.95
2023-03-02T04:14:48.787Z,98869.94
2023-03-02T04:17:53.401Z,98867.30
2023-03-02T04:20:58.161Z,98861.39
2023-03-02T04:24:01.457Z,98854.95
2023-03-02T04:27:04.824Z,98855.15
2023-03-02T04:30:09.746Z,98855.98
2023-03-02T04:33:13.321Z,98854.81
2023-03-02T04:36:16.627Z,98857.36
2023-03-02T04:39:20.464Z,98855.05
2023-03-02T04:42:26.436Z,98855.20
2023-03-02T04:45:29.611Z,98854.42
2023-03-02T04:48:33.238Z,98853.44
2023-03-02T04:51:43.046Z,98853.66
2023-03-02T04:54:46.286Z,98855.64
2023-03-02T04:57:49.748Z,98854.23
2023-03-02T05:00:54.783Z,98854.93
2023-03-02T05:03:58.089Z,98852.21
2023-03-02T05:07:01.435Z,98849.31
2023-03-02T05:10:04.924Z,98846.51
2023-03-02T05:13:08.255Z,98847.02
2023-03-02T05:16:11.649Z,98846.11
2023-03-02T05:19:15.223Z,98851.33
2023-03-02T05:22:18.497Z,98849.90
2023-03-02T05:25:22.191Z,98854.24
2023-03-02T05:28:26.579Z,98860.80
2023-03-02T05:31:42.150Z,98859.45
2023-03-02T05:34:45.430Z,98858.45
2023-03-02T05:37:49.151Z,98859.30
2023-03-02T05:40:52.320Z,98861.59
2023-03-02T05:43:55.876Z,98864.86
2023-03-02T05:46:59.126Z,98865.15
2023-03-02T05:50:02.432Z,98867.59
2023-03-02T05:53:05.846Z,98865.75
2023-03-02T05:56:09.658Z,98868.61
2023-03-02T05:59:13.043Z,98867.35
2023-03-02T06:02:16.679Z,98866.11
2023-03-02T06:05:20.256Z,98867.14
2023-03-02T06:08:23.475Z,98867.66
2023-03-02T06:11:26.669Z,98868.09
2023-03-02T06:14:29.999Z,98872.88
2023-03-02T06:17:33.549Z,98878.55
2023-03-02T06:20:36.794Z,98879.26
2023-03-02T06:23:40.254Z,98883.10
2023-03-02T06:26:43.878Z,98884.83
2023-03-02T06:29:47.083Z,98887.22
2023-03-02T06:32:50.806Z,98882.69
2023-03-02T06:35:54.201Z,98883.48
2023-03-02T06:38:57.455Z,98884.36
2023-03-02T06:42:00.941Z,98882.40
2023-03-02T06:45:05.040Z,98881.08
2023-03-02T06:48:08.413Z,98877.48
2023-03-02T06:51:12.763Z,98877.27
2023-03-02T06:54:15.980Z,98879.25
2023-03-02T06:57:19.254Z,98882.24
2023-03-02T07:00:28.272Z,98879.83
2023-03-02T07:03:31.621Z,98872.34
2023-03-02T07:06:34.824Z,98876.52
2023-03-02T07:09:38.056Z,98875.22
2023-03-02T07:12:42.466Z,98883.08
2023-03-02T07:15:45.732Z,98884.70
2023-03-02T07:18:48.959Z,98893.11
2023-03-02T07:21:52.163Z,98887.42
2023-03-02T07:24:55.372Z,98890.39
2023-03-02T07:27:59.009Z,98891.67
2023-03-02T07:31:02.341Z,98892.33
2023-03-02T07:34:05.611Z,98892.45
2023-03-02T07:37:08.787Z,98896.27
2023-03-02T07:40:12.972Z,98895.89
2023-03-02T07:43:16.183Z,98895.06
2023-03-02T07:46:19.450Z,98893.84
2023-03-02T07:49:22.715Z,98892.32
2023-03-02T07:52:25.909Z,98886.91
2023-03-02T07:55:29.464Z,98884.39
2023-03-02T07:58:32.818Z,98881.62
2023-03-02T08:01:36.520Z,98882.60
2023-03-02T08:04:40.369Z,98879.14
2023-03-02T08:07:46.047Z,98876.75
2023-03-02T08:10:49.564Z,98874.50
2023-03-02T08:14:02.851Z,98875.35
2023-03-02T08:17:07.043Z,98872.71
2023-03-02T08:20:11.100Z,98866.70
2023-03-02T08:26:31.926Z,98865.96
2023-03-02T08:29:35.868Z,98865.11
2023-03-02T08:32:40.175Z,98867.00
2023-03-02T08:35:43.571Z,98862.66
2023-03-02T08:38:48.281Z,98861.27
2023-03-02T08:41:55.979Z,98857.45
2023-03-02T08:45:00.950Z,98852.76
2023-03-02T08:48:04.403Z,98855.67
2023-03-02T08:51:11.865Z,98854.73
2023-03-02T08:54:16.263Z,98853.35
2023-03-02T08:57:59.253Z,98855.51
2023-03-02T09:00:52.802Z,98851.06
2023-03-02T09:03:57.766Z,98848.19
2023-03-02T09:07:01.217Z,98848.61
2023-03-02T09:10:04.917Z,98850.60
2023-03-02T09:13:21.923Z,98847.45
2023-03-02T09:16:33.251Z,98848.84
2023-03-02T09:19:44.671Z,98849.35
2023-03-02T09:22:50.910Z,98845.23
2023-03-02T09:25:56.322Z,98845.83
2023-03-02T09:28:59.712Z,98844.20
2023-03-02T09:32:03.164Z,98841.27
2023-03-02T09:35:07.197Z,98837.98
2023-03-02T09:38:16.202Z,98834.00
2023-03-02T09:41:19.820Z,98826.98
2023-03-02T09:44:32.567Z,98822.06
2023-03-02T09:47:47.038Z,98822.78
2023-03-02T09:51:11.887Z,98820.66
2023-03-02T09:54:20.685Z,98819.65
2023-03-02T09:57:29.078Z,98816.88
2023-03-02T10:00:36.523Z,98816.14
2023-03-02T10:03:57.723Z,98812.29
2023-03-02T10:07:29.348Z,98812.18
2023-03-02T10:11:00.986Z,98810.83
2023-03-02T10:14:12.941Z,98809.56
2023-03-02T10:17:16.303Z,98803.23
2023-03-02T10:20:22.926Z,98801.73
2023-03-02T10:23:48.540Z,98804.13
2023-03-02T10:26:55.188Z,98801.34
2023-03-02T10:30:33.865Z,98801.66
2023-03-02T10:33:40.659Z,98795.00
2023-03-02T10:36:47.651Z,98796.54
2023-03-02T10:39:52.092Z,98790.96
2023-03-02T10:42:57.098Z,98789.77
2023-03-02T10:46:01.917Z,98784.13
2023-03-02T10:49:05.403Z,98780.70
2023-03-02T10:52:15.994Z,98776.30
2023-03-02T10:55:19.469Z,98774.02
2023-03-02T10:58:29.648Z,98772.02
2023-03-02T11:01:32.988Z,98763.23
2023-03-02T11:04:36.418Z,98757.86
2023-03-02T11:07:39.839Z,98760.52
2023-03-02T11:11:00.507Z,98754.23
2023-03-02T11:14:14.539Z,98751.42
2023-03-02T11:17:32.170Z,98744.97
2023-03-02T11:20:43.647Z,98740.70
2023-03-02T11:24:29.190Z,98739.98
2023-03-02T11:27:37.019Z,98735.15
2023-03-02T11:30:47.623Z,98730.95
2023-03-02T11:34:11.767Z,98719.54
2023-03-02T11:37:23.592Z,98722.77
2023-03-02T11:40:34.750Z,98713.96
2023-03-02T11:43:38.459Z,98715.33
2023-03-02T11:46:48.696Z,98703.91
2023-03-02T11:49:59.207Z,98702.67
2023-03-02T11:53:08.295Z,98699.63
2023-03-02T11:56:12.238Z,98698.00
2023-03-02T11:59:21.178Z,98694.77
2023-03-02T12:02:27.063Z,98690.21
2023-03-02T12:05:35.943Z,98692.02
2023-03-02T12:08:42.564Z,98683.39
2023-03-02T12:12:32.928Z,98680.08
2023-03-02T12:15:43.104Z,98672.98
2023-03-02T12:18:51.301Z,98670.21
2023-03-02T12:22:05.770Z,98664.80
2023-03-02T12:25:21.395Z,98660.65
2023-03-02T12:28:42.319Z,98659.01
2023-03-02T12:31:56.669Z,98653.53
2023-03-02T12:35:09.193Z,98650.02
2023-03-02T12:38:34.035Z,98645.36
2023-03-02T12:42:23.499Z,98643.73
2023-03-02T12:45:48.871Z,98639.98
2023-03-02T12:49:33.521Z,98636.30
2023-03-02T12:52:56.622Z,98631.18
2023-03-02T12:56:00.835Z,98626.86
2023-03-02T12:59:04.239Z,98627.31
2023-03-02T13:02:24.486Z,98623.27
2023-03-02T13:05:33.690Z,98615.08
2023-03-02T13:08:37.341Z,98612.20
2023-03-02T13:11:44.321Z,98605.31
2023-03-02T13:14:56.494Z,98596.80
2023-03-02T13:18:03.981Z,98593.91
2023-03-02T13:21:13.494Z,98593.39
2023-03-02T13:24:36.163Z,98588.39
2023-03-02T13:27:39.421Z,98586.05
2023-03-02T13:30:47.913Z,98583.77
2023-03-02T13:33:53.728Z,98583.70
2023-03-02T13:36:57.294Z,98580.51
2023-03-02T13:40:30.303Z,98580.20
2023-03-02T13:43:41.030Z,98575.25
2023-03-02T13:46:48.287Z,98573.34
2023-03-02T13:49:51.724Z,98571.16
2023-03-02T13:53:06.377Z,98571.25
2023-03-02T13:56:16.760Z,98565.21
2023-03-02T13:59:22.268Z,98562.52
2023-03-02T14:02:27.106Z,98554.57
2023-03-02T14:05:33.610Z,98550.68
2023-03-02T14:08:37.145Z,98547.84
2023-03-02T14:11:43.930Z,98543.48
2023-03-02T14:15:15.070Z,98539.31
2023-03-02T14:18:36.705Z,98534.17
2023-03-02T14:21:40.354Z,98528.50
2023-03-02T14:24:59.705Z,98523.61
2023-03-02T14:28:03.708Z,98516.55
2023-03-02T14:31:10.045Z,98512.48
2023-03-02T14:34:42.053Z,98511.38
2023-03-02T14:37:44.742Z,98512.55
2023-03-02T14:40:55.043Z,98515.16
2023-03-02T14:43:58.421Z,98511.60
2023-03-02T14:47:01.750Z,98513.66
2023-03-02T14:50:06.196Z,98514.95
2023-03-02T14:53:25.300Z,98516.31
2023-03-02T14:56:29.011Z,98513.13
2023-03-02T14:59:32.323Z,98510.20
2023-03-02T15:02:35.820Z,98507.18
2023-03-02T15:05:59.040Z,98509.04
2023-03-02T15:09:29.021Z,98506.10
2023-03-02T15:12:32.342Z,98505.42
2023-03-02T15:15:44.801Z,98502.77
2023-03-02T15:18:52.601Z,98495.98
2023-03-02T15:21:57.183Z,98504.39
2023-03-02T15:25:00.495Z,98509.58
2023-03-02T15:28:04.107Z,98505.17
2023-03-02T15:31:12.655Z,98508.38
2023-03-02T15:34:16.792Z,98509.77
2023-03-02T15:37:21.473Z,98508.42
2023-03-02T15:40:25.695Z,98512.64
2023-03-02T15:43:29.256Z,98514.96
2023-03-02T15:46:32.809Z,98513.94
2023-03-02T15:49:37.977Z,98512.89
2023-03-02T15:52:42.064Z,98510.61
2023-03-02T15:55:48.109Z,98513.85
2023-03-02T15:58:51.671Z,98514.24
2023-03-02T16:02:02.577Z,98516.30
2023-03-02T16:05:06.211Z,98514.73
2023-03-02T16:08:09.485Z,98513.95
2023-03-02T16:11:18.746Z,98517.49
2023-03-02T16:14:22.121Z,98516.17
2023-03-02T16:17:25.359Z,98520.58
2023-03-02T16:20:28.796Z,98518.23
2023-03-02T16:23:32.076Z,98518.56
2023-03-02T16:26:42.270Z,98518.29
2023-03-02T16:29:45.577Z,98516.45
2023-03-02T16:32:49.028Z,98519.54
2023-03-02T16:35:52.269Z,98523.49
2023-03-02T16:38:55.540Z,98523.13
2023-03-02T16:41:58.781Z,98524.34
2023-03-02T16:45:02.672Z,98521.70
2023-03-02T16:48:06.558Z,98525.55
2023-03-02T16:51:09.909Z,98533.38
2023-03-02T16:54:22.291Z,98532.06
2023-03-02T16:57:25.512Z,98534.59
2023-03-02T17:00:31.304Z,98534.77
2023-03-02T17:03:38.423Z,98538.77
2023-03-02T17:06:59.752Z,98541.30
2023-03-02T17:13:23.247Z,98542.16
2023-03-02T17:16:26.685Z,98540.29
2023-03-02T17:19:29.965Z,98545.97
2023-03-02T17:22:34.010Z,98549.17
2023-03-02T17:25:37.569Z,98546.07
2023-03-02T17:28:40.879Z,98549.10
2023-03-02T17:31:44.903Z,98549.02
2023-03-02T17:34:48.214Z,98553.84
2023-03-02T17:37:51.536Z,98551.83
2023-03-02T17:40:54.799Z,98558.12
2023-03-02T17:43:58.286Z,98558.38
2023-03-02T17:47:03.962Z,98566.38
2023-03-02T17:50:07.409Z,98568.13
2023-03-02T17:53:10.726Z,98566.69
2023-03-02T17:56:19.130Z,98565.23
2023-03-02T17:59:22.395Z,98563.10
2023-03-02T18:02:30.801Z,98564.09
2023-03-02T18:05:34.129Z,98565.90
2023-03-02T18:08:37.654Z,98562.48
2023-03-02T18:11:43.941Z,98564.10
2023-03-02T18:14:47.183Z,98561.98
2023-03-02T18:17:50.470Z,98564.97
2023-03-02T18:20:55.185Z,98568.48
2023-03-02T18:23:58.565Z,98566.24
2023-03-02T18:27:02.338Z,98565.90
2023-03-02T18:30:06.418Z,98569.30
2023-03-02T18:33:16.902Z,98569.80
2023-03-02T18:36:20.423Z,98567.19
2023-03-02T18:39:27.444Z,98574.94
2023-03-02T18:42:39.510Z,98578.12
2023-03-02T18:45:43.400Z,98574.69
2023-03-02T18:48:47.754Z,98574.23
2023-03-02T18:51:53.080Z,98574.36
2023-03-02T18:54:59.201Z,98570.86
2023-03-02T18:58:03.034Z,98573.33
2023-03-02T19:01:07.395Z,98573.65
2023-03-02T19:04:10.940Z,98578.20
2023-03-02T19:07:14.236Z,98576.44
2023-03-02T19:10:19.518Z,98579.70
2023-03-02T19:13:24.653Z,98579.04
2023-03-02T19:16:28.169Z,98580.10
2023-03-02T19:19:31.825Z,98583.54
2023-03-02T19:22:35.012Z,98581.38
2023-03-02T19:25:38.795Z,98584.80
2023-03-02T19:28:42.028Z,98582.13
2023-03-02T19:31:45.363Z,98581.49
2023-03-02T19:34:48.973Z,98579.11
2023-03-02T19:37:52.348Z,98581.59
2023-03-02T19:40:57.948Z,98578.45
2023-03-02T19:44:02.039Z,98579.19
2023-03-02T19:47:06.259Z,98574.48
2023-03-02T19:50:10.140Z,98576.19
2023-03-02T19:53:13.915Z,98576.54
2023-03-02T19:56:20.402Z,98579.25
2023-03-02T19:59:24.720Z,98579.35
2023-03-02T20:02:28.549Z,98584.11
2023-03-02T20:05:39.111Z,98585.52
2023-03-02T20:08:42.438Z,98586.77
2023-03-02T20:11:47.238Z,98588.77
2023-03-02T20:14:52.857Z,98592.02
2023-03-02T20:17:58.437Z,98590.60
2023-03-02T20:21:01.986Z,98585.98
2023-03-02T20:24:06.118Z,98583.17
2023-03-02T20:27:11.619Z,98581.50
2023-03-02T20:30:39.934Z,98577.44
2023-03-02T20:33:49.338Z,98579.19
2023-03-02T20:36:52.742Z,98577.45
2023-03-02T20:39:56.473Z,98580.05
2023-03-02T20:42:59.744Z,98576.70
2023-03-02T20:46:03.870Z,98575.08
2023-03-02T20:49:09.656Z,98575.02
2023-03-02T20:52:12.922Z,98572.22
2023-03-02T20:55:16.582Z,98568.05
2023-03-02T20:58:19.978Z,98568.73
2023-03-02T21:01:24.180Z,98564.22
2023-03-02T21:04:27.535Z,98555.48
2023-03-02T21:07:30.828Z,98556.16
2023-03-02T21:10:36.538Z,98558.55
2023-03-02T21:13:40.030Z,98555.64
2023-03-02T21:16:44.907Z,98554.27
2023-03-02T21:19:48.078Z,98552.42
2023-03-02T21:22:51.502Z,98548.57
2023-03-02T21:25:54.791Z,98550.25
2023-03-02T21:28:58.124Z,98542.36
2023-03-02T21:32:01.348Z,98542.44
2023-03-02T21:35:05.360Z,98537.51
2023-03-02T21:38:09.511Z,98532.58
2023-03-02T21:41:12.773Z,98532.09
2023-03-02T21:44:16.155Z,98532.17
2023-03-02T21:47:23.245Z,98527.76
2023-03-02T21:50:30.390Z,98526.05
2023-03-02T21:53:34.348Z,98523.79
2023-03-02T21:56:37.782Z,98521.17
2023-03-02T21:59:41.384Z,98524.30
2023-03-02T22:02:45.155Z,98512.80
2023-03-02T22:05:49.947Z,98515.13
2023-03-02T22:08:54.285Z,98513.17
2023-03-02T22:11:58.184Z,98515.36
2023-03-02T22:15:04.453Z,98512.73
2023-03-02T22:18:20.177Z,98512.63
2023-03-02T22:21:43.676Z,98514.01
2023-03-02T22:24:50.375Z,98510.13
2023-03-02T22:27:54.108Z,98511.05
2023-03-02T22:31:00.450Z,98504.93
2023-03-02T22:34:13.264Z,98501.88
2023-03-02T22:37:25.961Z,98502.84
2023-03-02T22:40:30.925Z,98495.44
2023-03-02T22:43:35.656Z,98497.14
2023-03-02T22:46:40.320Z,98494.77
2023-03-02T22:49:43.973Z,98488.92
2023-03-02T22:52:47.603Z,98490.91
2023-03-02T22:55:59.995Z,98485.49
2023-03-02T22:59:07.727Z,98480.73
2023-03-02T23:02:18.512Z,98478.48
2023-03-02T23:05:34.339Z,98474.83
2023-03-02T23:08:37.662Z,98476.18
2023-03-02T23:11:42.123Z,98471.35
2023-03-02T23:14:50.359Z,98470.25
2023-03-02T23:17:53.652Z,98464.58
2023-03-02T23:20:57.698Z,98465.73
2023-03-02T23:24:02.628Z,98468.05
2023-03-02T23:27:06.395Z,98470.39
2023-03-02T23:30:10.155Z,98463.89
2023-03-02T23:33:13.584Z,98461.27
2023-03-02T23:36:17.161Z,98463.08
2023-03-02T23:39:20.536Z,98460.76
2023-03-02T23:42:24.082Z,98459.61
2023-03-02T23:45:27.483Z,98456.41
2023-03-02T23:48:30.982Z,98460.23
2023-03-02T23:51:34.443Z,98460.41
2023-03-02T23:54:37.773Z,98454.20
2023-03-02T23:57:41.514Z,98451.29
